Time;durP1;ratioP1;P1;durP2;ratioP2;P2;SDS_P1;SDS_P2;PMS_P1;PMS_P2;Temp;Humidity;BMP_temperature;BMP_pressure;BME280_temperature;BME280_humidity;BME280_pressure;Samples;Min_cycle;Max_cycle;Signal;HPM_P1;HPM_P2
2022/03/22 00:01:26;;;;;;;;;;;;;;;;;;6274914;22;19923;-77
2022/03/22 00:03:51;;;;;;;;;;;;;;;;;;6274906;22;19906;-78
2022/03/22 00:06:21;;;;;;;;;;;;;;;;;;6275738;22;19887;-77
2022/03/22 00:11:12;;;;;;;;;;;;;;;;;;6274525;22;19967;-77
2022/03/22 00:13:39;;;;;;;;;;;;;;;;;;6274429;22;19908;-76
2022/03/22 00:16:07;;;;;;;;;;;;;;;;;;6266693;22;19915;-76
2022/03/22 00:18:33;;;;;;;;;;;;;;;;;;6237737;23;20318;-76
2022/03/22 00:20:59;;;;;;;;;;;;;;;;;;6240540;23;19900;-76
2022/03/22 00:23:25;;;;;;;;;;;;;;;;;;6213265;23;19904;-76
2022/03/22 00:25:51;;;;;;;;;;;;;;;;;;6240738;23;19911;-76
2022/03/22 00:28:17;;;;;;;;;;;;;;;;;;6214740;23;19900;-76
2022/03/22 00:30:44;;;;;;;;;;;;;;;;;;6219292;22;19931;-76
2022/03/22 00:33:10;;;;;;;;;;;;;;;;;;6242115;23;19895;-76
2022/03/22 00:35:36;;;;;;;;;;;;;;;;;;6227516;22;19932;-76
2022/03/22 00:38:02;;;;;;;;;;;;;;;;;;6230142;23;19896;-76
2022/03/22 00:40:28;;;;;;;;;;;;;;;;;;6202568;23;19949;-76
2022/03/22 00:42:54;;;;;;;;;;;;;;;;;;6202749;23;19896;-75
2022/03/22 00:45:20;;;;;;;;;;;;;;;;;;6203543;23;19903;-76
2022/03/22 00:47:55;;;;;;;;;;;;;;;;;;6138123;23;19944;-76
2022/03/22 00:50:23;;;;;;;;;;;;;;;;;;6109571;23;19904;-76
2022/03/22 00:52:51;;;;;;;;;;;;;;;;;;6137983;23;19901;-75
2022/03/22 00:55:17;;;;;;;;;;;;;;;;;;6112715;23;19901;-76
2022/03/22 00:57:45;;;;;;;;;;;;;;;;;;6137820;23;20330;-75
2022/03/22 01:00:11;;;;;;;;;;;;;;;;;;6136896;23;19971;-76
2022/03/22 01:02:38;;;;;;;;;;;;;;;;;;6137739;23;19983;-76
2022/03/22 01:05:06;;;;;;;;;;;;;;;;;;6113136;23;19951;-76
2022/03/22 01:07:33;;;;;;;;;;;;;;;;;;6137064;23;19945;-76
2022/03/22 01:09:59;;;;;;;;;;;;;;;;;;6111975;23;19901;-75
2022/03/22 01:12:25;;;;;;;;;;;;;;;;;;6112733;23;20334;-75
2022/03/22 01:14:52;;;;;;;;;;;;;;;;;;6137179;23;19901;-76
2022/03/22 01:17:20;;;;;;;;;;;;;;;;;;6133245;23;19945;-75
2022/03/22 01:20:06;;;;;;;;;;;;;;;;;;6242091;22;19915;-75
2022/03/22 01:22:32;;;;;;;;;;;;;;;;;;6232124;23;19943;-75
2022/03/22 01:24:59;;;;;;;;;;;;;;;;;;6258547;23;19903;-75
2022/03/22 01:27:26;;;;;;;;;;;;;;;;;;6259285;23;20301;-75
2022/03/22 01:29:52;;;;;;;;;;;;;;;;;;6231789;23;19930;-75
2022/03/22 01:32:18;;;;;;;;;;;;;;;;;;6258520;23;19900;-76
2022/03/22 01:34:44;;;;;;;;;;;;;;;;;;6258731;23;19951;-76
2022/03/22 01:37:10;;;;;;;;;;;102.50;1203.20;;;;;;6258747;23;19907;-75
2022/03/22 01:39:36;;;;;;;;;;;102.40;1817.60;;;;;;6257537;23;20370;-76
2022/03/22 01:42:01;;;;;;;;;;;102.40;1203.20;;;;;;6257764;23;19919;-76
2022/03/22 01:44:30;;;;;;;;;;;77.70;1228.80;;;;;;6231811;23;19922;-75
2022/03/22 01:47:07;;;;;;;;;;;77.70;1228.80;;;;;;6260580;23;19899;-75
2022/03/22 01:49:34;;;;;;;;;;;77.70;1228.80;;;;;;6261298;23;19944;-75
2022/03/22 01:52:00;;;;;;;;;;;77.60;1254.40;;;;;;6259718;23;19907;-75
2022/03/22 01:54:27;;;;;;;;;;;77.60;1228.80;;;;;;6231474;23;20340;-75
2022/03/22 01:56:53;;;;;;;;;;;77.60;1228.80;;;;;;6233578;23;19899;-75
2022/03/22 01:59:18;;;;;;;;;;;77.60;1280.00;;;;;;6232999;23;19929;-75
2022/03/22 02:07:14;;;;;;;;;;;77.60;1254.40;;;;;;6260419;23;20071;-75
2022/03/22 02:09:46;;;;;;;;;;;77.50;1280.00;;;;;;6260009;23;19979;-75
2022/03/22 02:12:16;;;;;;;;;;;77.50;1280.00;;;;;;6260925;23;19908;-75
2022/03/22 02:14:43;;;;;;;;;;;77.50;1305.60;;;;;;6259523;23;20272;-75
2022/03/22 02:17:10;;;;;;;;;;;77.50;1305.60;;;;;;6232763;23;19900;-75
2022/03/22 02:19:37;;;;;;;;;;;77.50;1305.60;;;;;;6260146;23;19911;-75
2022/03/22 02:22:11;;;;;;;;;;;77.50;1254.40;;;;;;6259251;23;19977;-76
2022/03/22 02:24:38;;;;;;;;;;;77.40;1280.00;;;;;;6260328;23;20355;-75
2022/03/22 02:27:07;;;;;;;;;;;;;;;;;;6259223;23;19909;-76
2022/03/22 02:29:33;;;;;;;;;;;;;;;;;;6233290;23;19948;-75
2022/03/22 02:32:08;;;;;;;;;;;;;;;;;;6260691;23;19982;-76
2022/03/22 02:34:35;;;;;;;;;;;;;;;;;;6259863;23;19910;-75
2022/03/22 02:37:06;;;;;;;;;;;;;;;;;;6271741;22;19887;-77
2022/03/22 02:42:16;;;;;;;;;;;;;;;;;;6275667;22;19975;-76
2022/03/22 02:44:42;;;;;;;;;;;;;;;;;;6275224;22;19916;-77
2022/03/22 02:47:08;;;;;;;;;;;;;;;;;;6275099;22;19907;-76
2022/03/22 02:49:34;;;;;;;;;;;;;;;;;;6243870;22;19900;-76
2022/03/22 02:52:00;;;;;;;;;;;;;;;;;;6220818;22;19939;-77
2022/03/22 02:54:26;;;;;;;;;;;;;;;;;;6274904;22;19899;-77
2022/03/22 02:56:52;;;;;;;;;;;;;;;;;;6275196;22;19895;-75
2022/03/22 02:59:18;;;;;;;;;;;;;;;;;;6273964;22;19922;-76
2022/03/22 03:01:44;;;;;;;;;;;;;;;;;;6274901;23;19909;-76
2022/03/22 03:04:10;;;;;;;;;;;;;;;;;;6274714;23;19900;-77
2022/03/22 03:06:38;;;;;;;;;;;;;;;;;;6274981;23;19927;-77
2022/03/22 03:09:04;;;;;;;;;;;;;;;;;;6248874;23;19915;-77
2022/03/22 03:11:30;;;;;;;;;;;;;;;;;;6235136;22;19917;-76
2022/03/22 03:16:41;;;;;;;;;;;;;;;;;;6213786;23;19907;-76
2022/03/22 03:19:07;;;;;;;;;;;;;;;;;;6187823;23;19888;-76
2022/03/22 03:21:33;;;;;;;;;;;;;;;;;;6212626;23;19900;-76
2022/03/22 03:23:59;;;;;;;;;;;;;;;;;;6237683;22;19899;-75
2022/03/22 03:26:25;;;;;;;;;;;;;;;;;;6249496;22;19952;-76
2022/03/22 03:28:51;;;;;;;;;;;;;;;;;;6261151;22;19916;-76
2022/03/22 03:31:17;;;;;;;;;;;;;;;;;;6262327;22;19900;-75
2022/03/22 03:33:43;;;;;;;;;;;;;;;;;;6275091;22;19919;-76
2022/03/22 03:36:09;;;;;;;;;;;;;;;;;;6274411;22;19939;-76
2022/03/22 03:38:41;;;;;;;;;;;;;;;;;;6273788;22;19938;-76
2022/03/22 03:43:52;;;;;;;;;;;;;;;;;;6275545;22;19910;-75
2022/03/22 03:49:03;;;;;;;;;;;;;;;;;;6274820;22;19907;-76
2022/03/22 03:51:29;;;;;;;;;;;;;;;;;;6248067;23;19907;-76
2022/03/22 03:53:55;;;;;;;;;;;;;;;;;;6247958;22;19936;-75
2022/03/22 03:56:21;;;;;;;;;;;;;;;;;;6274035;22;19915;-76
2022/03/22 03:58:47;;;;;;;;;;;;;;;;;;6249522;22;19947;-76
2022/03/22 04:01:13;;;;;;;;;;;;;;;;;;6273388;22;19899;-76
2022/03/22 04:03:39;;;;;;;;;;;;;;;;;;6248831;23;19952;-75
2022/03/22 04:06:06;;;;;;;;;;;;;;;;;;6248715;23;19903;-77
2022/03/22 04:08:32;;;;;;;;;;;;;;;;;;6274660;23;19919;-76
2022/03/22 04:10:58;;;;;;;;;;;;;;;;;;6248654;22;19915;-77
2022/03/22 04:13:24;;;;;;;;;;;;;;;;;;6242648;23;19923;-77
2022/03/22 04:18:19;;;;;;;;;;;;;;;;;;6223635;22;19899;-76
2022/03/22 04:20:47;;;;;;;;;;;;;;;;;;6249994;22;19916;-76
2022/03/22 04:23:14;;;;;;;;;;;;;;;;;;6257661;22;19906;-76
2022/03/22 04:25:40;;;;;;;;;;;;;;;;;;6273493;23;19890;-76
2022/03/22 04:33:36;;;;;;;;;;;;;;;;;;6241423;22;19922;-76
2022/03/22 04:36:02;;;;;;;;;;;;;;;;;;6242992;23;19884;-75
2022/03/22 04:38:28;;;;;;;;;;;;;;;;;;6216003;23;20305;-76
2022/03/22 04:40:54;;;;;;;;;;;;;;;;;;6242010;22;19891;-76
2022/03/22 04:43:20;;;;;;;;;;;;;;;;;;6222298;23;19905;-77
2022/03/22 04:45:46;;;;;;;;;;;;;;;;;;6264581;22;19907;-76
2022/03/22 04:48:13;;;;;;;;;;;;;;;;;;6242874;23;19908;-76
2022/03/22 04:50:39;;;;;;;;;;;;;;;;;;6242579;23;19915;-76
2022/03/22 04:58:34;;;;;;;;;;;;;;;;;;6228500;23;19942;-76
2022/03/22 05:01:00;;;;;;;;;;;;;;;;;;6202461;23;19974;-76
2022/03/22 05:03:26;;;;;;;;;;;;;;;;;;6237400;23;19904;-76
2022/03/22 05:08:36;;;;;;;;;;;;;;;;;;6239829;23;19906;-76
2022/03/22 05:11:02;;;;;;;;;;;;;;;;;;6212675;22;19908;-77
2022/03/22 05:13:28;;;;;;;;;;;;;;;;;;6245107;23;19900;-76
2022/03/22 05:15:54;;;;;;;;;;;;;;;;;;6245052;23;19900;-75
2022/03/22 05:18:20;;;;;;;;;;;;;;;;;;6242472;22;19923;-75
2022/03/22 05:20:46;;;;;;;;;;;;;;;;;;6271067;23;19903;-76
2022/03/22 05:23:12;;;;;;;;;;;;;;;;;;6246840;23;19906;-75
2022/03/22 05:25:38;;;;;;;;;;;;;;;;;;6272103;22;20355;-76
2022/03/22 05:28:04;;;;;;;;;;;;;;;;;;6245959;23;19919;-75
2022/03/22 05:30:31;;;;;;;;;;;;;;;;;;6271162;23;19891;-77
2022/03/22 05:32:56;;;;;;;;;;;77.30;1356.80;;;;;;6270391;23;19890;-75
2022/03/22 05:35:23;;;;;;;;;;;77.20;1356.80;;;;;;6243337;23;20244;-75
2022/03/22 05:37:49;;;;;;;;;;;77.20;1382.40;;;;;;6269930;23;19900;-75
2022/03/22 05:40:16;;;;;;;;;;;77.20;1356.80;;;;;;6273022;23;19884;-77
2022/03/22 05:42:42;;;;;;;;;;;77.30;1408.00;;;;;;6273737;22;19922;-75
2022/03/22 05:45:08;;;;;;;;;;;77.40;1356.80;;;;;;6240369;23;19916;-77
2022/03/22 05:47:34;;;;;;;;;;;77.50;1356.80;;;;;;6216406;23;19906;-75
2022/03/22 05:50:00;;;;;;;;;;;77.50;1331.20;;;;;;6215848;23;20226;-75
2022/03/22 05:52:27;;;;;;;;;;;77.50;1356.80;;;;;;6207563;23;19912;-75
2022/03/22 05:54:54;;;;;;;;;;;77.60;1356.80;;;;;;6233801;23;19908;-76
2022/03/22 05:57:20;;;;;;;;;;;77.70;1356.80;;;;;;6213342;22;19907;-76
2022/03/22 05:59:46;;;;;;;;;;;77.70;1356.80;;;;;;6237767;22;19916;-75
2022/03/22 06:02:13;;;;;;;;;;;77.70;1331.20;;;;;;6238342;23;19900;-76
2022/03/22 06:04:39;;;;;;;;;;;102.40;1331.20;;;;;;6236378;23;19920;-77
2022/03/22 06:07:05;;;;;;;;;;;102.40;1305.60;;;;;;6239303;23;19908;-76
2022/03/22 06:09:35;;;;;;;;;;;102.40;1305.60;;;;;;6240062;23;19907;-76
2022/03/22 06:12:15;;;;;;;;;;;102.40;1331.20;;;;;;6240972;23;19907;-76
2022/03/22 06:15:14;;;;;;;;;;;102.50;1331.20;;;;;;6239555;23;19900;-76
2022/03/22 06:17:34;;;;;;;;;;;102.60;1356.80;;;;;;6236231;23;19900;-76
2022/03/22 06:20:19;;;;;;;;;;;102.80;1356.80;;;;;;6238968;23;19906;-76
2022/03/22 06:22:46;;;;;;;;;;;102.90;1356.80;;;;;;6212907;23;19939;-76
2022/03/22 06:25:15;;;;;;;;;;;102.90;1356.80;;;;;;6241914;23;19906;-76
2022/03/22 06:27:41;;;;;;;;;;;;;;;;;;6210641;23;19924;-76
2022/03/22 06:30:07;;;;;;;;;;;;;;;;;;6208056;23;19904;-76
2022/03/22 06:32:33;;;;;;;;;;;;;;;;;;6206812;23;19982;-75
2022/03/22 06:35:02;;;;;;;;;;;;;;;;;;6234396;23;19900;-75
2022/03/22 06:37:34;;;;;;;;;;;;;;;;;;6237950;23;19975;-77
2022/03/22 06:40:00;;;;;;;;;;;;;;;;;;6209837;23;19900;-76
2022/03/22 06:42:28;;;;;;;;;;;;;;;;;;6211353;23;19907;-76
2022/03/22 06:44:54;;;;;;;;;;;;;;;;;;6212024;22;19947;-77
2022/03/22 06:47:20;;;;;;;;;;;;;;;;;;6269038;22;19924;-76
2022/03/22 06:49:46;;;;;;;;;;;;;;;;;;6270249;23;19930;-76
2022/03/22 06:52:12;;;;;;;;;;;;;;;;;;6269847;23;19939;-76
2022/03/22 06:54:38;;;;;;;;;;;;;;;;;;6242468;23;19900;-76
2022/03/22 06:57:05;;;;;;;;;;;;;;;;;;6243218;23;19915;-77
2022/03/22 06:59:30;;;;;;;;;;;;;;;;;;6243785;23;19906;-76
2022/03/22 07:01:56;;;;;;;;;;;;;;;;;;6244291;23;19899;-76
2022/03/22 07:04:25;;;;;;;;;;;;;;;;;;6265289;23;19907;-76
2022/03/22 07:07:02;;;;;;;;;;;;;;;;;;6269002;23;19911;-76
2022/03/22 07:09:28;;;;;;;;;;;;;;;;;;6242349;23;19934;-76
2022/03/22 07:11:56;;;;;;;;;;;;;;;;;;6268210;23;19947;-76
2022/03/22 07:14:43;;;;;;;;;;;154.50;1228.80;;;;;;6244174;23;20328;-76
2022/03/22 07:17:17;;;;;;;;;;;154.40;1228.80;;;;;;6266859;23;19900;-76
2022/03/22 07:19:47;;;;;;;;;;;179.20;1203.20;;;;;;6232356;23;19887;-76
2022/03/22 07:22:16;;;;;;;;;;;179.30;1228.80;;;;;;6264951;23;19900;-76
2022/03/22 07:24:48;;;;;;;;;;;179.50;1203.20;;;;;;6240518;23;19900;-76
2022/03/22 07:27:14;;;;;;;;;;;179.70;1203.20;;;;;;6245646;22;19915;-76
2022/03/22 07:29:40;;;;;;;;;;;179.90;1228.80;;;;;;6246448;23;19911;-76
2022/03/22 07:32:06;;;;;;;;;;;180.00;1203.20;;;;;;6269728;23;19914;-76
2022/03/22 07:34:31;;;;;;;;;;;204.80;1177.60;;;;;;6241438;23;19903;-76
2022/03/22 07:36:57;;;;;;;;;;;205.00;1152.00;;;;;;6270880;23;19967;-76
2022/03/22 07:39:23;;;;;;;;;;;;;;;;;;6239059;23;19916;-76
2022/03/22 07:41:49;;;;;;;;;;;;;;;;;;6213351;23;19954;-76
2022/03/22 07:44:15;;;;;;;;;;;;;;;;;;6213553;23;19899;-76
2022/03/22 07:46:41;;;;;;;;;;;;;;;;;;6239881;23;19884;-76
2022/03/22 07:54:35;;;;;;;;;;;231.00;1075.20;;;;;;6269526;22;19953;-76
2022/03/22 07:57:01;;;;;;;;;;;231.30;1049.60;;;;;;6243203;23;19900;-76
2022/03/22 07:59:27;;;;;;;;;;;256.30;1049.60;;;;;;6263171;23;19904;-76
2022/03/22 08:02:20;;;;;;;;;;;256.70;1024.00;;;;;;6197222;23;20272;-76
2022/03/22 08:04:45;;;;;;;;;;;281.60;998.40;;;;;;6269374;23;19903;-76
2022/03/22 08:07:17;;;;;;;;;;;282.10;972.80;;;;;;6195830;23;19903;-76
2022/03/22 08:09:45;;;;;;;;;;;282.50;947.20;;;;;;6246741;22;19915;-80
2022/03/22 08:12:12;;;;;;;;;;;307.40;947.20;;;;;;6244538;22;19946;-76
2022/03/22 08:14:38;;;;;;;;;;;307.60;921.60;;;;;;6246035;23;19908;-76
2022/03/22 08:17:15;;;;;;;;;;;307.90;896.00;;;;;;6272513;22;19935;-76
2022/03/22 08:19:42;;;;;;;;;;;358.80;844.80;;;;;;6264099;22;19915;-77
2022/03/22 08:23:06;;;;;;;;;;;435.20;819.20;;;;;;6267595;22;19903;-76
2022/03/22 08:25:39;;;;;;;;;;;461.60;742.40;;;;;;6271139;22;19959;-77
2022/03/22 08:28:29;;;;;;;;;;;512.60;665.60;;;;;;6271245;22;19908;-82
2022/03/22 08:31:02;;;;;;;;;;;538.20;640.00;;;;;;6198197;23;19965;-89
2022/03/22 08:33:28;;;;;;;;;;;563.70;588.80;;;;;;6247576;23;20330;-91
2022/03/22 08:35:54;;;;;;;;;;;589.00;588.80;;;;;;6248019;23;19899;-90
2022/03/22 08:38:20;;;;;;;;;;;614.40;563.20;;;;;;6248083;23;19906;-90
2022/03/22 08:40:47;;;;;;;;;;;614.90;537.60;;;;;;6221038;23;19899;-89
2022/03/22 08:43:12;;;;;;;;;;;640.10;512.00;;;;;;6220573;23;19899;-86
2022/03/22 08:45:38;;;;;;;;;;;640.80;486.40;;;;;;6246787;23;19914;-85
2022/03/22 08:48:09;;;;;;;;;;;666.20;486.40;;;;;;6219895;23;19900;-84
2022/03/22 08:50:36;;;;;;;;;;;691.80;460.80;;;;;;6219704;23;20309;-87
2022/03/22 08:53:01;;;;;;;;;;;717.00;460.80;;;;;;6219406;23;19899;-82
2022/03/22 08:55:28;;;;;;;;;;;742.40;460.80;;;;;;6245956;23;19931;-85
2022/03/22 08:57:54;;;;;;;;;;;743.10;460.80;;;;;;6219788;23;20412;-83
2022/03/22 09:00:20;;;;;;;;;;;743.10;460.80;;;;;;6246581;23;19906;-82
2022/03/22 09:02:47;;;;;;;;;;;768.50;435.20;;;;;;6246824;23;19904;-81
2022/03/22 09:07:58;;;;;;;;;;;793.60;435.20;;;;;;6242883;23;20363;-79
2022/03/22 09:10:24;;;;;;;;;;;794.10;409.60;;;;;;6218981;23;19959;-81
2022/03/22 09:12:51;;;;;;;;;;;794.40;384.00;;;;;;6246186;23;20232;-84
2022/03/22 09:15:17;;;;;;;;;;;794.20;384.00;;;;;;6245651;23;19978;-83
2022/03/22 09:17:44;;;;;;;;;;;820.00;384.00;;;;;;6218662;23;19907;-83
2022/03/22 09:20:13;;;;;;;;;;;819.70;358.40;;;;;;6245256;23;20336;-82
2022/03/22 09:22:40;;;;;;;;;;;845.00;384.00;;;;;;6219302;23;19982;-81
2022/03/22 09:25:07;;;;;;;;;;;845.50;358.40;;;;;;6216427;23;19943;-82
2022/03/22 09:27:33;;;;;;;;;;;870.60;358.40;;;;;;6215293;23;19904;-81
2022/03/22 09:29:58;;;;;;;;;;;870.90;358.40;;;;;;6215039;23;19927;-83
2022/03/22 09:32:24;;;;;;;;;;;896.00;332.80;;;;;;6214707;23;19908;-80
2022/03/22 09:34:50;;;;;;;;;;;896.50;332.80;;;;;;6188197;23;19963;-80
2022/03/22 09:37:16;;;;;;;;;;;922.10;332.80;;;;;;6214589;23;19975;-80
2022/03/22 09:39:48;;;;;;;;;;;921.80;307.20;;;;;;6188653;23;20317;-82
2022/03/22 09:42:15;;;;;;;;;;;896.90;307.20;;;;;;6214935;23;20026;-82
2022/03/22 09:44:41;;;;;;;;;;;922.00;332.80;;;;;;6188857;23;19900;-83
2022/03/22 09:47:07;;;;;;;;;;;921.90;307.20;;;;;;6215204;23;19903;-82
2022/03/22 09:49:32;;;;;;;;;;;922.50;307.20;;;;;;6215114;23;19938;-79
2022/03/22 09:51:58;;;;;;;;;;;972.80;307.20;;;;;;6188114;23;20301;-83
2022/03/22 09:54:25;;;;;;;;;;;948.00;281.60;;;;;;6212844;23;19978;-83
2022/03/22 09:57:15;;;;;;;;;;;972.90;307.20;;;;;;6187482;23;19900;-82
2022/03/22 09:59:40;;;;;;;;;;;973.50;307.20;;;;;;6214352;23;19900;-82
2022/03/22 10:02:06;;;;;;;;;;;998.40;332.80;;;;;;6188072;23;20533;-82
2022/03/22 10:04:42;;;;;;;;;;;973.20;307.20;;;;;;6214867;23;19903;-84
2022/03/22 10:07:08;;;;;;;;;;;871.20;332.80;;;;;;6216058;23;19907;-85
2022/03/22 10:09:36;;;;;;;;;;;794.30;409.60;;;;;;6189422;23;19904;-81
2022/03/22 10:12:03;;;;;;;;;;;742.80;435.20;;;;;;6189404;23;19907;-83
2022/03/22 10:14:33;;;;;;;;;;;691.70;435.20;;;;;;6189508;23;19910;-81
2022/03/22 10:17:06;;;;;;;;;;;640.70;435.20;;;;;;6190568;23;19899;-82
2022/03/22 10:19:32;;;;;;;;;;;614.90;486.40;;;;;;6190641;23;20404;-84
2022/03/22 10:22:04;;;;;;;;;;;614.40;512.00;;;;;;6216470;23;19900;-82
2022/03/22 10:24:29;;;;;;;;;;;589.40;537.60;;;;;;6189416;23;19904;-84
2022/03/22 10:26:55;;;;;;;;;;;564.10;640.00;;;;;;6214464;23;20317;-84
2022/03/22 10:29:21;;;;;;;;;;;563.50;588.80;;;;;;6219944;23;19900;-82
2022/03/22 10:31:46;;;;;;;;;;;563.20;588.80;;;;;;6220009;23;20010;-78
2022/03/22 10:34:13;;;;;;;;;;;538.50;563.20;;;;;;6219730;23;19899;-84
2022/03/22 10:36:39;;;;;;;;;;;538.40;588.80;;;;;;6220499;23;19899;-86
2022/03/22 10:39:09;;;;;;;;;;;538.20;563.20;;;;;;6246785;23;19946;-85
2022/03/22 10:41:35;;;;;;;;;;;;;;;;;;6219723;23;19899;-85
2022/03/22 10:44:02;;;;;;;;;;;538.30;588.80;;;;;;6246609;23;19900;-79
2022/03/22 10:46:29;;;;;;;;;;;538.20;588.80;;;;;;6246414;23;19903;-81
2022/03/22 10:49:11;;;;;;;;;;;538.00;588.80;;;;;;6246031;23;19938;-81
2022/03/22 10:51:44;;;;;;;;;;;537.90;588.80;;;;;;6246534;23;19911;-83
2022/03/22 10:54:12;;;;;;;;;;;537.70;614.40;;;;;;6246456;23;19910;-84
2022/03/22 10:56:52;;;;;;;;;;;512.80;588.80;;;;;;6219513;23;19916;-78
2022/03/22 10:59:19;;;;;;;;;;;512.80;614.40;;;;;;6219046;23;19939;-83
2022/03/22 11:01:45;;;;;;;;;;;512.60;563.20;;;;;;6245893;23;19900;-83
2022/03/22 11:04:12;;;;;;;;;;;512.50;588.80;;;;;;6246082;23;19951;-86
2022/03/22 11:06:38;;;;;;;;;;;512.40;563.20;;;;;;6245997;23;19938;-81
2022/03/22 11:09:04;;;;;;;;;;;512.40;563.20;;;;;;6246029;23;19900;-80
2022/03/22 11:11:31;;;;;;;;;;;512.40;588.80;;;;;;6219461;23;20233;-80
2022/03/22 11:13:57;;;;;;;;;;;512.20;563.20;;;;;;6219521;23;19982;-84
2022/03/22 11:16:24;;;;;;;;;;;512.10;563.20;;;;;;6246654;23;19926;-87
2022/03/22 11:18:50;;;;;;;;;;;512.00;588.80;;;;;;6220149;23;19923;-84
2022/03/22 11:21:18;;;;;;;;;;;487.00;588.80;;;;;;6220208;23;19899;-81
2022/03/22 11:23:44;;;;;;;;;;;512.10;588.80;;;;;;6246925;23;19903;-82
2022/03/22 11:26:11;;;;;;;;;;;512.20;588.80;;;;;;6246796;23;20310;-82
2022/03/22 11:28:38;;;;;;;;;;;512.20;588.80;;;;;;6246865;23;19977;-84
2022/03/22 11:31:06;;;;;;;;;;;512.50;614.40;;;;;;6219901;23;19937;-85
2022/03/22 11:36:17;;;;;;;;;;;512.50;588.80;;;;;;6246707;23;19907;-83
2022/03/22 11:38:43;;;;;;;;;;;512.50;588.80;;;;;;6246020;23;20010;-84
2022/03/22 11:44:14;;;;;;;;;;;512.20;588.80;;;;;;6246461;23;19946;-86
2022/03/22 11:46:41;;;;;;;;;;;512.00;588.80;;;;;;6220598;23;19982;-85
2022/03/22 11:49:10;;;;;;;;;;;512.00;563.20;;;;;;6219634;23;20355;-86
2022/03/22 11:51:45;;;;;;;;;;;512.10;614.40;;;;;;6246815;23;19908;-84
2022/03/22 11:54:11;;;;;;;;;;;512.30;588.80;;;;;;6219716;23;19900;-88
2022/03/22 11:56:44;;;;;;;;;;;512.50;563.20;;;;;;6246879;23;19903;-81
2022/03/22 11:59:13;;;;;;;;;;;512.50;588.80;;;;;;6247312;23;19899;-85
2022/03/22 12:01:40;;;;;;;;;;;512.60;588.80;;;;;;6246052;23;20340;-85
2022/03/22 12:04:14;;;;;;;;;;;512.70;588.80;;;;;;6246980;23;19903;-85
2022/03/22 12:06:40;;;;;;;;;;;512.50;588.80;;;;;;6246692;23;20232;-78
2022/03/22 12:09:08;;;;;;;;;;;512.50;588.80;;;;;;6245957;23;19978;-81
2022/03/22 12:11:35;;;;;;;;;;;512.70;588.80;;;;;;6245842;23;19913;-84
2022/03/22 12:14:02;;;;;;;;;;;512.70;588.80;;;;;;6246689;23;19978;-84
2022/03/22 12:16:27;;;;;;;;;;;512.60;588.80;;;;;;6245908;23;19904;-85
2022/03/22 12:18:53;;;;;;;;;;;512.70;588.80;;;;;;6219015;23;19907;-84
2022/03/22 12:21:19;;;;;;;;;;;512.90;588.80;;;;;;6245573;23;19906;-85
2022/03/22 12:23:47;;;;;;;;;;;537.60;614.40;;;;;;6246326;23;19978;-84
2022/03/22 12:26:13;;;;;;;;;;;537.60;614.40;;;;;;6218138;23;19908;-81
2022/03/22 12:28:50;;;;;;;;;;;512.90;588.80;;;;;;6219818;23;20255;-86
2022/03/22 12:31:21;;;;;;;;;;;537.60;614.40;;;;;;6245663;23;19904;-85
2022/03/22 12:33:56;;;;;;;;;;;537.60;614.40;;;;;;6219452;23;20232;-86
2022/03/22 12:36:22;;;;;;;;;;;537.80;640.00;;;;;;6219464;23;19937;-87
2022/03/22 12:38:48;;;;;;;;;;;537.90;588.80;;;;;;6246004;23;20344;-88
2022/03/22 12:41:14;;;;;;;;;;;538.00;614.40;;;;;;6220135;23;19901;-89
2022/03/22 12:43:45;;;;;;;;;;;538.00;614.40;;;;;;6218740;23;19907;-80
2022/03/22 12:46:13;;;;;;;;;;;537.90;614.40;;;;;;6245366;23;20321;-83
2022/03/22 12:48:40;;;;;;;;;;;538.10;614.40;;;;;;6245720;23;19903;-84
2022/03/22 12:51:07;;;;;;;;;;;538.00;588.80;;;;;;6219562;23;19907;-78
2022/03/22 12:53:33;;;;;;;;;;;537.90;588.80;;;;;;6219546;23;19935;-77
2022/03/22 12:55:59;;;;;;;;;;;538.10;588.80;;;;;;6218896;23;19904;-86
2022/03/22 12:58:28;;;;;;;;;;;538.00;588.80;;;;;;6218634;23;19957;-85
2022/03/22 13:00:54;;;;;;;;;;;538.20;588.80;;;;;;6219534;23;20246;-86
2022/03/22 13:03:20;;;;;;;;;;;614.90;563.20;;;;;;6246017;23;19907;-84
2022/03/22 13:05:52;;;;;;;;;;;793.60;435.20;;;;;;6245972;23;19978;-87
2022/03/22 13:08:19;;;;;;;;;;;871.20;332.80;;;;;;6219999;23;19974;-85
2022/03/22 13:15:01;;;;;;;;;;;1024.40;332.80;;;;;;6246278;23;19915;-83
2022/03/22 13:16:19;;;;;;;;;;;1075.40;358.40;;;;;;6247051;23;19899;-84
2022/03/22 13:18:49;;;;;;;;;;;1101.00;384.00;;;;;;6246825;23;19941;-83
2022/03/22 13:21:21;;;;;;;;;;;1152.10;409.60;;;;;;6246159;23;19899;-83
2022/03/22 13:23:46;;;;;;;;;;;1127.20;409.60;;;;;;6218724;23;20310;-83
2022/03/22 13:26:15;;;;;;;;;;;1126.60;409.60;;;;;;6245394;23;19931;-85
2022/03/22 13:28:41;;;;;;;;;;;1177.70;409.60;;;;;;6219200;23;19938;-85
2022/03/22 13:31:07;;;;;;;;;;;1203.80;435.20;;;;;;6246723;23;19961;-80
2022/03/22 13:33:38;;;;;;;;;;;1178.20;409.60;;;;;;6246793;23;19935;-85
2022/03/22 13:36:04;;;;;;;;;;;1152.80;409.60;;;;;;6247013;23;19946;-84
2022/03/22 13:38:32;;;;;;;;;;;1152.80;409.60;;;;;;6243316;23;19899;-83
2022/03/22 13:41:03;;;;;;;;;;;1177.70;409.60;;;;;;6245717;23;19910;-80
2022/03/22 13:43:41;;;;;;;;;;;1152.60;409.60;;;;;;6247602;23;19899;-86
2022/03/22 13:46:07;;;;;;;;;;;1177.60;409.60;;;;;;6248527;23;19911;-84
2022/03/22 13:48:42;;;;;;;;;;;1178.40;409.60;;;;;;6221114;23;19927;-83
2022/03/22 13:51:09;;;;;;;;;;;1178.30;409.60;;;;;;6245605;23;19943;-82
2022/03/22 13:53:34;;;;;;;;;;;1203.20;435.20;;;;;;6247254;23;19903;-81
2022/03/22 13:56:00;;;;;;;;;;;1178.40;409.60;;;;;;6246909;23;20342;-83
2022/03/22 13:58:28;;;;;;;;;;;1152.70;409.60;;;;;;6247951;23;20462;-81
2022/03/22 14:00:54;;;;;;;;;;;1152.10;409.60;;;;;;6246551;23;19969;-80
2022/03/22 14:03:20;;;;;;;;;;;998.50;332.80;;;;;;6248042;23;20336;-81
2022/03/22 14:05:46;;;;;;;;;;;871.00;332.80;;;;;;6248088;23;19906;-80
2022/03/22 14:08:13;;;;;;;;;;;793.80;384.00;;;;;;6247870;23;19953;-79
2022/03/22 14:10:40;;;;;;;;;;;742.50;409.60;;;;;;6248368;23;19949;-83
2022/03/22 14:13:06;;;;;;;;;;;691.90;409.60;;;;;;6248289;23;19934;-80
2022/03/22 14:15:32;;;;;;;;;;;717.60;384.00;;;;;;6221508;23;19954;-82
2022/03/22 14:18:00;;;;;;;;;;;768.70;358.40;;;;;;6247492;23;19899;-82
2022/03/22 14:20:27;;;;;;;;;;;743.10;384.00;;;;;;6248272;23;20206;-82
2022/03/22 14:22:53;;;;;;;;;;;691.80;409.60;;;;;;6247402;23;19986;-77
2022/03/22 14:25:20;;;;;;;;;;;665.70;460.80;;;;;;6247416;23;19991;-82
2022/03/22 14:27:46;;;;;;;;;;;640.10;460.80;;;;;;6220510;23;19910;-83
2022/03/22 14:30:17;;;;;;;;;;;614.80;486.40;;;;;;6220769;23;19907;-80
2022/03/22 14:32:47;;;;;;;;;;;614.40;512.00;;;;;;6247381;23;19966;-81
2022/03/22 14:37:58;;;;;;;;;;;589.20;512.00;;;;;;6247875;23;20278;-78
2022/03/22 14:40:24;;;;;;;;;;;589.10;537.60;;;;;;6247929;23;19900;-82
2022/03/22 14:42:51;;;;;;;;;;;588.80;537.60;;;;;;6248010;23;19921;-82
2022/03/22 14:45:18;;;;;;;;;;;563.60;563.20;;;;;;6247646;23;20309;-82
2022/03/22 14:47:44;;;;;;;;;;;563.60;588.80;;;;;;6247917;23;19935;-81
2022/03/22 14:50:09;;;;;;;;;;;563.70;588.80;;;;;;6248085;23;20214;-80
2022/03/22 14:55:19;;;;;;;;;;;563.20;588.80;;;;;;6247432;23;19910;-83
2022/03/22 15:00:29;;;;;;;;;;;538.20;588.80;;;;;;6247169;23;19906;-81
2022/03/22 15:02:56;;;;;;;;;;;538.10;588.80;;;;;;6247024;23;19922;-77
2022/03/22 15:05:38;;;;;;;;;;;538.10;588.80;;;;;;6247675;23;19935;-82
2022/03/22 15:08:06;;;;;;;;;;;538.00;588.80;;;;;;6220385;23;19900;-82
2022/03/22 15:10:32;;;;;;;;;;;537.80;588.80;;;;;;6247546;23;19907;-83
2022/03/22 15:12:58;;;;;;;;;;;537.80;588.80;;;;;;6220772;23;19903;-81
2022/03/22 15:15:24;;;;;;;;;;;537.70;588.80;;;;;;6221264;23;20340;-82
2022/03/22 15:17:49;;;;;;;;;;;537.70;614.40;;;;;;6247595;23;19900;-84
2022/03/22 15:20:15;;;;;;;;;;;537.60;614.40;;;;;;6247657;23;20358;-84
2022/03/22 15:22:41;;;;;;;;;;;;;;;;;;6246951;23;19904;-82
2022/03/22 15:25:07;;;;;;;;;;;512.70;614.40;;;;;;6247157;23;19903;-85
2022/03/22 15:27:33;;;;;;;;;;;512.40;614.40;;;;;;6246329;23;20229;-83
2022/03/22 15:29:59;;;;;;;;;;;512.30;614.40;;;;;;6247475;23;19899;-83
2022/03/22 15:32:24;;;;;;;;;;;512.30;640.00;;;;;;6246049;23;19914;-81
2022/03/22 15:34:50;;;;;;;;;;;512.20;640.00;;;;;;6246660;23;20228;-83
2022/03/22 15:37:16;;;;;;;;;;;512.00;640.00;;;;;;6246964;23;19900;-85
2022/03/22 15:39:41;;;;;;;;;;;512.00;640.00;;;;;;6219835;23;20305;-85
2022/03/22 15:42:08;;;;;;;;;;;487.20;640.00;;;;;;6220586;23;19903;-82
2022/03/22 15:44:34;;;;;;;;;;;487.10;665.60;;;;;;6220296;23;19954;-84
2022/03/22 15:46:59;;;;;;;;;;;487.20;665.60;;;;;;6220550;23;19900;-85
2022/03/22 15:49:25;;;;;;;;;;;487.10;665.60;;;;;;6220268;23;20313;-83